HKNW/WIL METAR and TAF weather

Enter ICAO airport designator
Station Type Date Time Source
HKNW METAR 2022/06/27 18:00 UTC NOAA

HKNW 271800Z 00000KT 9999 BKN020 17/10 Q1025


Station Type Date Time Source
HKNW Decoded METAR 2022/06/27 18:00 UTC NOAA

Nairobi / Wilson, Kenya (HKNW) 01-19S 036-49E 1679M
Jun 27, 2022 - 02:00 PM EDT / 2022.06.27 1800 UTC
Wind: Calm:0
Visibility: greater than 7 mile(s):0
Sky conditions: mostly cloudy
Temperature: 62 F (17 C)
Dew Point: 50 F (10 C)
Relative Humidity: 63%
Pressure (altimeter): 30.27 in. Hg (1025 hPa)
ob: HKNW 271800Z 00000KT 9999 BKN020 17/10 Q1025
cycle: 18

Station Type Date Time Source
HKNW TAF 2022/06/27 18:09 UTC NOAA

TAF HKNW 271700Z 2718/2818 07010KT 9999 BKN019
BECMG 2800/2804 VRB02KT FEW007 BKN015
BECMG 2808/2811 11010KT BKN025

Example: see airport list